Time;durP1;ratioP1;P1;durP2;ratioP2;P2;SDS_P1;SDS_P2;PMS_P1;PMS_P2;Temp;Humidity;BMP_temperature;BMP_pressure;BME280_temperature;BME280_humidity;BME280_pressure;Samples;Min_cycle;Max_cycle;Signal;HPM_P1;HPM_P2
2022/01/06 00:00:10;;;;;;;1999.90;999.90;;;;;;;4.76;77.77;100172.28;5068160;28;20090;-68
2022/01/06 00:02:36;;;;;;;1999.90;999.90;;;;;;;4.92;77.19;100168.19;5067656;28;20044;-67
2022/01/06 00:05:04;;;;;;;1999.90;999.90;;;;;;;4.93;76.68;100174.22;5068378;28;20578;-67
2022/01/06 00:07:31;;;;;;;1999.90;999.90;;;;;;;4.82;76.97;100165.09;5068093;28;20052;-67
2022/01/06 00:09:57;;;;;;;1999.90;999.90;;;;;;;4.78;76.56;100176.50;5067306;28;20048;-68
2022/01/06 00:12:31;;;;;;;1999.90;999.90;;;;;;;4.53;77.61;100174.84;5068583;28;20570;-68
2022/01/06 00:15:05;;;;;;;1999.90;999.90;;;;;;;4.30;78.50;100173.94;5066349;28;20047;-68
2022/01/06 00:17:43;;;;;;;1999.90;999.90;;;;;;;4.96;76.34;100174.97;5067384;28;20072;-68
2022/01/06 00:23:23;;;;;;;1999.90;999.90;;;;;;;4.64;76.90;100189.16;5064643;28;20177;-68
2022/01/06 00:25:50;;;;;;;1999.90;999.90;;;;;;;5.04;75.00;100185.06;5052999;28;20045;-68
2022/01/06 00:28:17;;;;;;;1999.90;999.90;;;;;;;4.62;75.88;100182.34;5064750;28;20048;-68
2022/01/06 00:30:45;;;;;;;1999.90;999.90;;;;;;;4.28;77.73;100185.28;5066892;28;20072;-68
2022/01/06 00:33:12;;;;;;;1999.90;999.90;;;;;;;4.36;77.57;100196.22;5067647;28;20048;-68
2022/01/06 00:35:38;;;;;;;1999.90;999.90;;;;;;;4.74;76.28;100202.63;5066307;28;20121;-68
2022/01/06 00:38:06;;;;;;;1999.90;999.90;;;;;;;4.63;76.69;100196.97;5054085;28;20067;-68
2022/01/06 00:40:33;;;;;;;1999.90;999.90;;;;;;;4.62;76.99;100211.72;5047414;28;20076;-68
2022/01/06 00:43:00;;;;;;;1999.90;999.90;;;;;;;4.57;77.42;100212.78;5047384;28;20044;-68
2022/01/06 00:45:27;;;;;;;1999.90;999.90;;;;;;;4.46;77.50;100214.91;5047332;28;20503;-68
2022/01/06 00:47:54;;;;;;;1999.90;999.90;;;;;;;4.38;77.71;100226.41;5064155;28;20063;-68
2022/01/06 00:50:21;;;;;;;1999.90;999.90;;;;;;;4.77;76.29;100226.75;5067278;28;20082;-68
2022/01/06 00:52:47;;;;;;;1999.90;999.90;;;;;;;4.60;76.54;100231.69;5066711;28;20064;-68
2022/01/06 00:55:14;;;;;;;1999.90;999.90;;;;;;;4.41;77.21;100230.66;5067437;28;20546;-68
2022/01/06 00:57:40;;;;;;;1999.90;999.90;;;;;;;4.49;77.04;100235.56;5063913;28;20664;-68
2022/01/06 01:00:08;;;;;;;1999.90;999.90;;;;;;;4.32;77.62;100249.16;5061170;28;20080;-68
2022/01/06 01:02:34;;;;;;;1999.90;999.90;;;;;;;4.32;77.95;100251.75;5066269;28;20082;-68
2022/01/06 01:05:02;;;;;;;1999.90;999.90;;;;;;;4.30;78.22;100250.94;5067172;28;20075;-68
2022/01/06 01:07:29;;;;;;;1999.90;999.90;;;;;;;4.63;77.07;100257.56;5066391;28;20064;-68
2022/01/06 01:09:55;;;;;;;1999.90;999.90;;;;;;;4.48;77.95;100254.63;5067704;28;20078;-68
2022/01/06 01:12:24;;;;;;;1999.90;999.90;;;;;;;4.31;78.55;100261.28;5067196;28;20040;-67
2022/01/06 01:14:53;;;;;;;1999.90;999.90;;;;;;;4.65;78.62;100276.53;5065849;28;20055;-67
2022/01/06 01:17:24;;;;;;;1999.90;999.90;;;;;;;4.74;77.74;100276.22;5064611;28;20140;-66
2022/01/06 01:19:50;;;;;;;1999.90;999.90;;;;;;;3.23;80.04;100310.47;5066124;28;20052;-66
2022/01/06 01:22:18;;;;;;;1999.90;999.90;;;;;;;3.05;80.91;100310.16;5066919;28;20052;-66
2022/01/06 01:24:44;;;;;;;1999.90;999.90;;;;;;;2.98;78.72;100318.97;5066989;28;20695;-66
2022/01/06 01:27:11;;;;;;;1999.90;999.90;;;;;;;3.16;77.45;100319.31;5064713;28;20390;-66
2022/01/06 01:29:45;;;;;;;1999.90;999.90;;;;;;;2.92;77.49;100314.81;5055798;28;20056;-67
2022/01/06 01:32:12;;;;;;;1999.90;999.90;;;;;;;3.07;76.47;100316.16;5061065;28;20072;-66
2022/01/06 01:34:40;;;;;;;1999.90;999.90;;;;;;;3.31;75.26;100333.59;5048576;28;20045;-66
2022/01/06 01:37:06;;;;;;;1999.90;999.90;;;;;;;3.57;74.33;100344.03;5053211;28;20048;-66
2022/01/06 01:39:34;;;;;;;1999.90;999.90;;;;;;;3.19;74.77;100339.94;5066674;28;20094;-66
2022/01/06 01:42:00;;;;;;;1999.90;999.90;;;;;;;3.48;74.01;100352.06;5068362;28;20045;-66
2022/01/06 01:44:26;;;;;;;1999.90;999.90;;;;;;;3.38;74.59;100354.09;5068640;28;20061;-66
2022/01/06 01:47:00;;;;;;;1999.90;999.90;;;;;;;3.38;74.62;100361.88;5068714;28;20048;-66
2022/01/06 01:49:44;;;;;;;1999.90;999.90;;;;;;;3.23;75.41;100371.81;5068195;28;20064;-67
2022/01/06 01:52:10;;;;;;;1999.90;999.90;;;;;;;3.11;76.21;100374.72;5067919;28;20428;-67
2022/01/06 01:54:38;;;;;;;1999.90;999.90;;;;;;;3.05;76.67;100378.34;5066003;28;20071;-67
2022/01/06 01:57:04;;;;;;;1999.90;999.90;;;;;;;3.13;76.49;100385.91;5063978;28;20110;-67
2022/01/06 01:59:31;;;;;;;1999.90;999.90;;;;;;;3.28;75.85;100391.53;5066725;28;20044;-67
2022/01/06 02:01:57;;;;;;;1999.90;999.90;;;;;;;2.99;76.45;100401.81;5068044;28;20451;-67
2022/01/06 02:04:23;;;;;;;1999.90;999.90;;;;;;;2.90;77.25;100404.63;5068954;28;20097;-67
2022/01/06 02:06:50;;;;;;;1999.90;999.90;;;;;;;3.03;76.85;100411.19;5068173;28;20052;-67
2022/01/06 02:09:17;;;;;;;1999.90;999.90;;;;;;;2.81;77.89;100415.22;5068392;28;20052;-67
2022/01/06 02:11:44;;;;;;;1999.90;999.90;;;;;;;3.02;77.00;100430.22;5068170;28;20128;-67
2022/01/06 02:14:11;;;;;;;1999.90;999.90;;;;;;;3.08;76.29;100422.28;5060124;28;20072;-67
2022/01/06 02:16:38;;;;;;;1999.90;999.90;;;;;;;3.13;76.03;100435.13;5067709;28;20040;-67
2022/01/06 02:19:05;;;;;;;1999.90;999.90;;;;;;;3.19;75.06;100443.59;5060393;28;20052;-67
2022/01/06 02:21:32;;;;;;;1999.90;999.90;;;;;;;2.85;76.07;100448.75;5067061;28;20052;-67
2022/01/06 02:23:59;;;;;;;1999.90;999.90;;;;;;;3.00;75.25;100455.31;5065542;28;20412;-68
2022/01/06 02:26:25;;;;;;;1999.90;999.90;;;;;;;2.94;75.48;100458.91;5063116;28;20052;-68
2022/01/06 02:28:51;;;;;;;1999.90;999.90;;;;;;;2.94;74.85;100461.50;5048395;28;20111;-69
2022/01/06 02:31:18;;;;;;;1999.90;999.90;;;;;;;2.73;75.36;100469.81;5065948;28;20144;-68
2022/01/06 02:33:45;;;;;;;1999.90;999.90;;;;;;;2.70;75.08;100477.63;5064333;28;20049;-68
2022/01/06 02:36:12;;;;;;;1999.90;999.90;;;;;;;2.35;75.36;100493.97;5064890;28;20049;-68
2022/01/06 02:38:39;;;;;;;1999.90;999.90;;;;;;;2.43;74.96;100486.91;5064804;28;20040;-68
2022/01/06 02:41:06;;;;;;;1999.90;999.90;;;;;;;2.66;74.44;100488.94;5063297;28;20488;-68
2022/01/06 02:43:32;;;;;;;1999.90;999.90;;;;;;;2.65;73.51;100497.59;5064502;28;20205;-68
2022/01/06 02:45:59;;;;;;;1999.90;999.90;;;;;;;2.58;73.81;100502.94;5066297;28;20515;-68
2022/01/06 02:48:25;;;;;;;1999.90;999.90;;;;;;;2.57;74.11;100507.28;5067774;28;20456;-68
2022/01/06 02:50:52;;;;;;;1999.90;999.90;;;;;;;2.45;74.15;100512.72;5067814;28;20117;-68
2022/01/06 02:53:19;;;;;;;1999.90;999.90;;;;;;;2.69;73.36;100525.13;5068627;28;20048;-68
2022/01/06 02:55:50;;;;;;;1999.90;999.90;;;;;;;2.66;73.15;100520.00;5068491;28;20677;-68
2022/01/06 02:58:17;;;;;;;;;;;;;;;2.72;73.19;100535.41;5067672;28;20049;-68
2022/01/06 03:00:43;;;;;;;1999.90;999.90;;;;;;;2.78;72.91;100545.59;5068310;28;20062;-68
2022/01/06 03:03:10;;;;;;;1999.90;999.90;;;;;;;2.71;72.87;100554.41;5068269;28;20094;-68
2022/01/06 03:05:36;;;;;;;1999.90;999.90;;;;;;;2.81;72.77;100561.06;5067457;28;20114;-68
2022/01/06 03:08:03;;;;;;;1999.90;999.90;;;;;;;2.81;72.54;100557.63;5062575;28;20091;-68
2022/01/06 03:10:31;;;;;;;1999.90;999.90;;;;;;;2.31;74.01;100571.69;5065869;28;20044;-68
2022/01/06 03:12:58;;;;;;;1999.90;999.90;;;;;;;2.50;73.94;100575.59;5068285;28;20105;-68
2022/01/06 03:15:25;;;;;;;1999.90;999.90;;;;;;;2.56;73.09;100585.81;5068662;28;20048;-68
2022/01/06 03:17:55;;;;;;;1999.90;999.90;;;;;;;2.68;72.94;100589.88;5056156;28;20109;-68
2022/01/06 03:20:23;;;;;;;1999.90;999.90;;;;;;;2.90;71.92;100589.34;5068196;28;20101;-68
2022/01/06 03:22:50;;;;;;;1999.90;999.90;;;;;;;2.72;72.14;100609.63;5067963;28;20041;-68
2022/01/06 03:25:17;;;;;;;1999.90;999.90;;;;;;;2.70;72.56;100616.56;5068194;28;21051;-68
2022/01/06 03:27:44;;;;;;;1999.90;999.90;;;;;;;2.73;71.95;100617.38;5067940;28;20451;-68
2022/01/06 03:30:14;;;;;;;1999.90;999.90;;;;;;;2.82;72.00;100618.88;5067827;28;20044;-68
2022/01/06 03:32:41;;;;;;;1999.90;999.90;;;;;;;2.64;72.10;100624.47;5068169;28;20098;-68
2022/01/06 03:35:12;;;;;;;1999.90;999.90;;;;;;;2.82;71.58;100627.50;5067534;28;20045;-68
2022/01/06 03:37:39;;;;;;;1999.90;999.90;;;;;;;2.42;72.38;100631.81;5064185;28;20803;-68
2022/01/06 03:40:07;;;;;;;1999.90;999.90;;;;;;;2.53;72.15;100645.41;5068015;28;20048;-68
2022/01/06 03:42:34;;;;;;;1999.90;999.90;;;;;;;2.56;70.94;100637.56;5067110;28;20041;-68
2022/01/06 03:45:00;;;;;;;1999.90;999.90;;;;;;;2.20;72.61;100651.25;5065353;28;20036;-68
2022/01/06 03:47:28;;;;;;;1999.90;999.90;;;;;;;2.44;72.19;100653.34;5063552;28;20040;-68
2022/01/06 03:49:55;;;;;;;1999.90;999.90;;;;;;;2.53;71.20;100654.91;5060383;28;20477;-68
2022/01/06 03:52:22;;;;;;;1999.90;999.90;;;;;;;2.47;71.60;100658.47;5067693;28;20518;-68
2022/01/06 03:54:48;;;;;;;1999.90;999.90;;;;;;;2.41;71.60;100653.41;5067707;28;20113;-68
2022/01/06 03:57:14;;;;;;;1999.90;999.90;;;;;;;2.26;71.83;100664.03;5065705;28;20102;-68
2022/01/06 03:59:41;;;;;;;1999.90;999.90;;;;;;;2.43;71.70;100667.19;5055423;28;20049;-68
2022/01/06 04:02:07;;;;;;;1999.90;999.90;;;;;;;2.32;71.47;100669.97;5065710;28;20186;-68
2022/01/06 04:04:35;;;;;;;1999.90;999.90;;;;;;;2.20;71.90;100672.78;5067885;28;20090;-68
2022/01/06 04:07:01;;;;;;;1999.90;999.90;;;;;;;2.10;72.60;100678.16;5067388;28;20462;-68
2022/01/06 04:09:28;;;;;;;1999.90;999.90;;;;;;;2.22;72.40;100671.00;5067789;28;20331;-68
2022/01/06 04:11:54;;;;;;;1999.90;999.90;;;;;;;2.04;72.10;100694.63;5068478;28;20040;-68
2022/01/06 04:14:20;;;;;;;1999.90;999.90;;;;;;;2.00;72.25;100689.53;5067058;28;20072;-68
2022/01/06 04:16:47;;;;;;;1999.90;999.90;;;;;;;2.22;71.83;100696.03;5066714;28;20048;-68
2022/01/06 04:19:13;;;;;;;1999.90;999.90;;;;;;;1.98;72.06;100709.41;5066417;28;20048;-68
2022/01/06 04:21:41;;;;;;;1999.90;999.90;;;;;;;2.04;71.75;100709.28;5067907;28;20048;-68
2022/01/06 04:24:07;;;;;;;1999.90;999.90;;;;;;;2.37;70.88;100711.25;5066693;28;20048;-68
2022/01/06 04:26:33;;;;;;;1999.90;999.90;;;;;;;2.42;69.81;100707.72;5066594;28;20044;-68
2022/01/06 04:29:00;;;;;;;1999.90;999.90;;;;;;;2.38;69.93;100720.75;5058578;28;20040;-68
2022/01/06 04:31:26;;;;;;;1999.90;999.90;;;;;;;2.30;70.70;100736.41;5066025;28;20048;-68
2022/01/06 04:33:52;;;;;;;1999.90;999.90;;;;;;;2.48;69.95;100745.56;5048078;28;20106;-68
2022/01/06 04:36:20;;;;;;;1999.90;999.90;;;;;;;2.49;69.94;100734.34;5047624;28;20425;-68
2022/01/06 04:38:48;;;;;;;1999.90;999.90;;;;;;;2.42;70.17;100743.09;5053231;28;20151;-68
2022/01/06 04:41:14;;;;;;;1999.90;999.90;;;;;;;2.09;71.18;100743.69;5066557;28;20044;-69
2022/01/06 04:43:41;;;;;;;1999.90;999.90;;;;;;;2.05;70.96;100752.38;5062863;28;20044;-68
2022/01/06 04:46:07;;;;;;;1999.90;999.90;;;;;;;2.38;69.98;100757.81;5061355;28;20041;-68
2022/01/06 04:48:35;;;;;;;1999.90;999.90;;;;;;;2.49;69.33;100752.44;5066159;28;20044;-68
2022/01/06 04:51:01;;;;;;;1999.90;999.90;;;;;;;2.56;68.80;100748.00;5067695;28;20048;-68
2022/01/06 04:53:28;;;;;;;1999.90;999.90;;;;;;;2.43;69.45;100747.41;5065727;28;20118;-68
2022/01/06 04:55:58;;;;;;;1999.90;999.90;;;;;;;2.28;69.49;100760.59;5067458;28;20044;-68
2022/01/06 04:58:24;;;;;;;1999.90;999.90;;;;;;;2.44;68.87;100780.13;5066650;28;20451;-68
2022/01/06 05:00:50;;;;;;;1999.90;999.90;;;;;;;2.18;69.69;100780.59;5066326;28;20570;-68
2022/01/06 05:03:17;;;;;;;1999.90;999.90;;;;;;;1.88;70.97;100779.38;5066326;28;20053;-68
2022/01/06 05:05:43;;;;;;;1999.90;999.90;;;;;;;1.94;70.97;100781.88;5066017;28;20040;-68
2022/01/06 05:08:10;;;;;;;1999.90;999.90;;;;;;;1.87;70.37;100789.75;5066046;28;20048;-68
2022/01/06 05:10:36;;;;;;;1999.90;999.90;;;;;;;2.27;69.55;100790.78;5064553;28;20049;-68
2022/01/06 05:13:04;;;;;;;1999.90;999.90;;;;;;;1.96;70.05;100794.75;5065692;28;20044;-68
2022/01/06 05:15:30;;;;;;;1999.90;999.90;;;;;;;1.99;70.18;100791.28;5066057;28;20052;-68
2022/01/06 05:17:56;;;;;;;1999.90;999.90;;;;;;;1.64;70.92;100792.66;5067031;28;20098;-68
2022/01/06 05:20:25;;;;;;;1999.90;999.90;;;;;;;1.74;70.65;100804.56;5066867;28;20484;-68
2022/01/06 05:22:55;;;;;;;1999.90;999.90;;;;;;;1.90;70.28;100800.88;5066320;28;20044;-68
2022/01/06 05:25:25;;;;;;;1999.90;999.90;;;;;;;1.85;70.12;100810.44;5066370;28;20044;-68
2022/01/06 05:27:52;;;;;;;1999.90;999.90;;;;;;;1.47;71.41;100815.31;5065349;28;20139;-68
2022/01/06 05:30:20;;;;;;;1999.90;999.90;;;;;;;1.30;71.73;100814.66;5065457;28;20520;-68
2022/01/06 05:32:46;;;;;;;1999.90;999.90;;;;;;;1.48;71.52;100817.00;5066227;28;20123;-68
2022/01/06 05:35:13;;;;;;;1999.90;999.90;;;;;;;1.53;71.26;100825.56;5066134;28;20098;-68
2022/01/06 05:37:40;;;;;;;1999.90;999.90;;;;;;;1.51;71.26;100835.06;5064355;28;20390;-68
2022/01/06 05:40:07;;;;;;;1999.90;999.90;;;;;;;1.38;71.49;100851.59;5065804;28;20501;-68
2022/01/06 05:42:33;;;;;;;1999.90;999.90;;;;;;;1.55;71.09;100848.81;5062442;28;20504;-68
2022/01/06 05:45:00;;;;;;;1999.90;999.90;;;;;;;1.42;72.11;100859.28;5066175;28;20056;-68
2022/01/06 05:47:27;;;;;;;1999.90;999.90;;;;;;;1.32;72.56;100862.00;5063910;28;20056;-68
2022/01/06 05:49:53;;;;;;;1999.90;999.90;;;;;;;1.52;72.39;100865.19;5066983;28;20041;-68
2022/01/06 05:52:20;;;;;;;1999.90;999.90;;;;;;;1.49;72.76;100867.81;5065309;28;20040;-68
2022/01/06 05:54:46;;;;;;;1999.90;999.90;;;;;;;1.30;73.58;100876.66;5065709;28;20149;-68
2022/01/06 05:57:15;;;;;;;1999.90;999.90;;;;;;;1.31;74.05;100876.66;5066213;28;20049;-68
2022/01/06 05:59:42;;;;;;;1999.90;999.90;;;;;;;1.48;73.55;100870.44;5065452;28;20052;-68
2022/01/06 06:02:08;;;;;;;1999.90;999.90;;;;;;;1.15;74.97;100874.25;5058485;28;20071;-68
2022/01/06 06:04:36;;;;;;;1999.90;999.90;;;;;;;1.62;73.60;100879.72;5065773;28;20044;-68
2022/01/06 06:07:03;;;;;;;1999.90;999.90;;;;;;;1.74;73.35;100886.44;5065525;28;20041;-68
2022/01/06 06:09:29;;;;;;;1999.90;999.90;;;;;;;1.78;73.01;100894.13;5065835;28;20114;-68
2022/01/06 06:11:56;;;;;;;1999.90;999.90;;;;;;;1.82;73.07;100898.38;5066630;28;20044;-68
2022/01/06 06:14:22;;;;;;;1999.90;999.90;;;;;;;1.69;73.56;100902.03;5065236;28;20064;-68
2022/01/06 06:16:48;;;;;;;1999.90;999.90;;;;;;;2.06;72.56;100907.53;5065284;28;20188;-68
2022/01/06 06:19:15;;;;;;;1999.90;999.90;;;;;;;1.91;72.44;100920.69;5065689;28;20610;-68
2022/01/06 06:21:43;;;;;;;1999.90;999.90;;;;;;;1.82;72.80;100920.78;5065304;28;20064;-68
2022/01/06 06:24:09;;;;;;;1999.90;999.90;;;;;;;1.81;73.50;100924.28;5067390;28;20033;-68
2022/01/06 06:26:35;;;;;;;1999.90;999.90;;;;;;;1.91;73.15;100937.06;5059958;28;20484;-68
2022/01/06 06:29:02;;;;;;;1999.90;999.90;;;;;;;2.02;72.85;100933.47;5053290;28;20040;-68
2022/01/06 06:31:28;;;;;;;1999.90;999.90;;;;;;;1.72;74.22;100943.34;5069052;28;20045;-68
2022/01/06 06:33:54;;;;;;;1999.90;999.90;;;;;;;1.83;73.75;100931.13;5069750;28;20117;-68
2022/01/06 06:36:21;;;;;;;1999.90;999.90;;;;;;;2.01;72.55;100931.75;5069100;28;20400;-68
2022/01/06 06:38:48;;;;;;;1999.90;999.90;;;;;;;1.80;73.94;100945.81;5064131;28;20086;-68
2022/01/06 06:41:15;;;;;;;1999.90;999.90;;;;;;;1.77;74.20;100945.88;5059611;28;20064;-68
2022/01/06 06:43:41;;;;;;;1999.90;999.90;;;;;;;1.68;74.14;100946.84;5069935;28;20562;-68
2022/01/06 06:46:07;;;;;;;1999.90;999.90;;;;;;;1.60;74.46;100960.72;5069107;28;20057;-68
2022/01/06 06:48:34;;;;;;;1999.90;999.90;;;;;;;1.85;73.81;100955.22;5068042;28;20041;-68
2022/01/06 06:51:02;;;;;;;1999.90;999.90;;;;;;;1.86;73.64;100969.00;5069053;28;20102;-68
2022/01/06 06:53:28;;;;;;;1999.90;999.90;;;;;;;1.99;73.31;100968.00;5069545;28;20441;-68
2022/01/06 06:55:56;;;;;;;1999.90;999.90;;;;;;;1.98;73.02;100963.69;5067576;28;20049;-68
2022/01/06 06:58:22;;;;;;;1999.90;999.90;;;;;;;2.03;72.53;100971.41;5067791;28;20068;-68
2022/01/06 07:00:48;;;;;;;1999.90;999.90;;;;;;;2.18;72.52;100976.38;5067095;28;20047;-68
2022/01/06 07:03:15;;;;;;;1999.90;999.90;;;;;;;2.09;72.54;100992.84;5068060;28;20044;-68
2022/01/06 07:05:41;;;;;;;1999.90;999.90;;;;;;;2.18;72.29;100997.06;5067845;28;20122;-68
2022/01/06 07:08:07;;;;;;;1999.90;999.90;;;;;;;2.38;72.04;101006.25;5067427;28;20044;-68
2022/01/06 07:10:34;;;;;;;1999.90;999.90;;;;;;;2.28;72.17;101006.41;5068190;28;20098;-68
2022/01/06 07:13:01;;;;;;;1999.90;999.90;;;;;;;2.16;72.63;101017.75;5068422;28;20103;-68
2022/01/06 07:15:28;;;;;;;1999.90;999.90;;;;;;;2.20;72.67;101021.16;5069056;28;20467;-68
2022/01/06 07:17:54;;;;;;;1999.90;999.90;;;;;;;2.20;72.45;101018.56;5065232;28;20124;-68
2022/01/06 07:20:20;;;;;;;1999.90;999.90;;;;;;;2.36;71.87;101018.38;5068404;28;20040;-68
2022/01/06 07:22:47;;;;;;;1999.90;999.90;;;;;;;2.50;71.81;101025.06;5066651;28;20048;-68
2022/01/06 07:25:13;;;;;;;1999.90;999.90;;;;;;;2.39;71.65;101032.97;5062795;28;20075;-68
2022/01/06 07:27:40;;;;;;;1999.90;999.90;;;;;;;2.56;71.28;101041.34;5065374;28;20477;-68
2022/01/06 07:30:09;;;;;;;1999.90;999.90;;;;;;;2.45;71.29;101041.50;5066896;28;20094;-68
2022/01/06 07:32:42;;;;;;;1999.90;999.90;;;;;;;2.61;70.67;101044.75;5067935;28;20044;-68
2022/01/06 07:35:09;;;;;;;1999.90;999.90;;;;;;;2.51;71.09;101048.34;5067459;28;20063;-68
2022/01/06 07:37:35;;;;;;;1999.90;999.90;;;;;;;2.41;71.18;101051.91;5052100;28;20090;-68
2022/01/06 07:40:02;;;;;;;1999.90;999.90;;;;;;;2.57;70.85;101052.56;5062989;28;20070;-68
2022/01/06 07:42:28;;;;;;;1999.90;999.90;;;;;;;2.85;70.08;101059.06;5068703;28;20048;-68
2022/01/06 07:44:55;;;;;;;1999.90;999.90;;;;;;;3.01;69.74;101064.84;5067655;28;20121;-68
2022/01/06 07:47:23;;;;;;;1999.90;999.90;;;;;;;3.03;69.20;101066.53;5060766;28;20045;-68
2022/01/06 07:49:49;;;;;;;1999.90;999.90;;;;;;;2.73;69.74;101075.66;5065859;28;20109;-68
2022/01/06 07:52:16;;;;;;;1999.90;999.90;;;;;;;2.74;70.21;101079.06;5067570;28;20044;-68
2022/01/06 07:54:42;;;;;;;1999.90;999.90;;;;;;;2.64;70.15;101074.91;5067354;28;20049;-68
2022/01/06 07:57:08;;;;;;;1999.90;999.90;;;;;;;2.84;69.72;101078.09;5066568;28;20033;-68
2022/01/06 07:59:35;;;;;;;1999.90;999.90;;;;;;;2.63;70.17;101086.13;5067426;28;20098;-68
2022/01/06 08:02:01;;;;;;;1999.90;999.90;;;;;;;2.93;69.43;101086.56;5066715;28;20044;-68
2022/01/06 08:04:29;;;;;;;1999.90;999.90;;;;;;;2.97;69.20;101091.69;5064202;28;20102;-69
2022/01/06 08:06:55;;;;;;;1999.90;999.90;;;;;;;2.79;69.54;101101.44;5066333;28;20409;-68
2022/01/06 08:09:21;;;;;;;1999.90;999.90;;;;;;;2.71;69.97;101111.03;5066330;28;20094;-68
2022/01/06 08:11:48;;;;;;;1999.90;999.90;;;;;;;2.98;69.35;101119.31;5067306;28;20045;-68
2022/01/06 08:14:14;;;;;;;1999.90;999.90;;;;;;;3.01;68.93;101121.84;5065771;28;20507;-68
2022/01/06 08:16:40;;;;;;;1999.90;999.90;;;;;;;3.25;68.06;101124.09;5063948;28;20090;-68
2022/01/06 08:19:07;;;;;;;1999.90;999.90;;;;;;;3.42;67.74;101124.66;5066797;28;20052;-68
2022/01/06 08:21:34;;;;;;;1999.90;999.90;;;;;;;3.61;66.77;101130.41;5052257;28;20044;-68
2022/01/06 08:24:01;;;;;;;1999.90;999.90;;;;;;;3.48;66.86;101137.50;5064743;28;20181;-68
2022/01/06 08:26:27;;;;;;;1999.90;999.90;;;;;;;3.26;67.52;101125.78;5065670;28;20048;-68
2022/01/06 08:28:54;;;;;;;1999.90;999.90;;;;;;;3.58;66.92;101138.22;5065073;28;20048;-68
2022/01/06 08:31:20;;;;;;;1999.90;999.90;;;;;;;3.58;66.91;101136.50;5066510;28;20052;-68
2022/01/06 08:33:47;;;;;;;1999.90;999.90;;;;;;;3.34;67.33;101142.94;5056776;28;20094;-68
2022/01/06 08:36:13;;;;;;;1999.90;999.90;;;;;;;3.73;66.35;101149.19;5064888;28;20068;-68
2022/01/06 08:38:42;;;;;;;1999.90;999.90;;;;;;;3.82;65.82;101153.34;5063326;28;20590;-68
2022/01/06 08:41:08;;;;;;;1999.90;999.90;;;;;;;3.81;65.56;101144.72;5059068;28;20078;-68
2022/01/06 08:43:35;;;;;;;1999.90;999.90;;;;;;;4.10;64.60;101151.97;5063976;28;20153;-68
2022/01/06 08:46:01;;;;;;;1999.90;999.90;;;;;;;4.20;64.41;101163.06;5067754;28;20048;-68
2022/01/06 08:48:29;;;;;;;1999.90;999.90;;;;;;;4.27;64.04;101160.31;5068272;28;20079;-68
2022/01/06 08:50:56;;;;;;;1999.90;999.90;;;;;;;4.29;63.45;101173.25;5062630;28;20052;-68
2022/01/06 08:53:23;;;;;;;1999.90;999.90;;;;;;;4.32;63.68;101175.81;5064664;28;20045;-68
2022/01/06 08:55:50;;;;;;;1999.90;999.90;;;;;;;4.32;62.90;101178.41;5065137;28;20048;-68
2022/01/06 08:58:18;;;;;;;1999.90;999.90;;;;;;;4.42;63.21;101185.13;5067257;28;20174;-68
2022/01/06 09:00:45;;;;;;;1999.90;999.90;;;;;;;4.55;63.01;101186.56;5063849;28;20044;-68
2022/01/06 09:03:11;;;;;;;1999.90;999.90;;;;;;;4.75;63.43;101188.78;5062118;28;20566;-68
2022/01/06 09:05:39;;;;;;;1999.90;999.90;;;;;;;4.82;62.02;101187.75;5057958;28;20064;-68
2022/01/06 09:08:06;;;;;;;1999.90;999.90;;;;;;;5.41;60.71;101181.22;5063709;28;20051;-69
2022/01/06 09:10:34;;;;;;;1999.90;999.90;;;;;;;5.64;59.91;101184.16;5065334;28;20048;-69
2022/01/06 09:13:02;;;;;;;1999.90;999.90;;;;;;;5.62;58.85;101182.47;5062723;28;20463;-69
2022/01/06 09:15:28;;;;;;;1999.90;999.90;;;;;;;5.60;58.68;101184.25;5063356;28;20048;-68
2022/01/06 09:17:55;;;;;;;1999.90;999.90;;;;;;;5.57;59.24;101193.00;5065096;28;20045;-68
2022/01/06 09:20:21;;;;;;;1999.90;999.90;;;;;;;5.73;58.53;101202.13;5060193;28;20467;-68
2022/01/06 09:22:48;;;;;;;1999.90;999.90;;;;;;;5.74;58.51;101206.44;5059106;28;20044;-69
2022/01/06 09:25:15;;;;;;;1999.90;999.90;;;;;;;5.38;59.32;101208.19;5064608;28;20047;-69
2022/01/06 09:27:43;;;;;;;1999.90;999.90;;;;;;;5.37;59.43;101216.00;5064530;28;20095;-68
2022/01/06 09:30:12;;;;;;;1999.90;999.90;;;;;;;5.37;60.52;101222.06;5063949;28;20412;-68
2022/01/06 09:32:40;;;;;;;1999.90;999.90;;;;;;;5.46;59.85;101218.41;5065456;28;20109;-69
2022/01/06 09:35:07;;;;;;;1999.90;999.90;;;;;;;5.58;59.89;101218.09;5064573;28;20041;-68
2022/01/06 09:37:34;;;;;;;1999.90;999.90;;;;;;;5.59;59.61;101216.34;5055300;28;20125;-68
2022/01/06 09:40:00;;;;;;;1999.90;999.90;;;;;;;5.44;59.77;101224.50;5064832;28;20121;-68
2022/01/06 09:42:26;;;;;;;1999.90;999.90;;;;;;;5.69;59.58;101228.28;5062638;28;20040;-68
2022/01/06 09:44:54;;;;;;;1999.90;999.90;;;;;;;6.12;58.29;101228.09;5064204;28;20729;-68
2022/01/06 09:47:22;;;;;;;1999.90;999.90;;;;;;;6.34;57.96;101224.88;5063973;28;20044;-68
2022/01/06 09:49:48;;;;;;;1999.90;999.90;;;;;;;6.99;57.00;101223.94;5063046;28;20454;-68
2022/01/06 09:52:15;;;;;;;1999.90;999.90;;;;;;;7.69;54.93;101220.88;5066017;28;20098;-68
2022/01/06 09:54:41;;;;;;;1999.90;999.90;;;;;;;8.12;53.71;101217.72;5060664;28;20070;-68
2022/01/06 09:57:08;;;;;;;1999.90;999.90;;;;;;;8.59;52.30;101210.84;5067672;28;20432;-68
2022/01/06 09:59:35;;;;;;;1999.90;999.90;;;;;;;8.69;50.73;101220.06;5069709;28;20044;-68
2022/01/06 10:02:01;;;;;;;1999.90;999.90;;;;;;;8.97;49.93;101219.06;5070471;28;20045;-68
2022/01/06 10:04:29;;;;;;;1999.90;999.90;;;;;;;9.15;50.22;101214.00;5070955;28;20041;-68
2022/01/06 10:07:06;;;;;;;1999.90;999.90;;;;;;;9.41;49.60;101212.97;5067295;28;20055;-67
2022/01/06 10:09:34;;;;;;;1999.90;999.90;;;;;;;9.51;50.49;101221.31;5069434;28;20052;-67
2022/01/06 10:12:06;;;;;;;1999.90;999.90;;;;;;;9.36;48.64;101212.28;5063590;28;20561;-67
2022/01/06 10:14:40;;;;;;;1999.90;999.90;;;;;;;9.17;49.03;101213.91;5068739;28;20044;-67
2022/01/06 10:17:06;;;;;;;1999.90;999.90;;;;;;;8.92;50.17;101218.38;5067618;28;20124;-67
2022/01/06 10:19:35;;;;;;;1999.90;999.90;;;;;;;9.11;50.21;101216.78;5065135;28;20052;-67
2022/01/06 10:22:02;;;;;;;1999.90;999.90;;;;;;;9.24;50.25;101220.59;5069753;28;20044;-67
2022/01/06 10:24:30;;;;;;;1999.90;999.90;;;;;;;8.84;50.94;101225.63;5070806;28;20048;-67
2022/01/06 10:26:58;;;;;;;1999.90;999.90;;;;;;;8.98;50.88;101228.63;5068247;28;20412;-67
2022/01/06 10:29:27;;;;;;;1999.90;999.90;;;;;;;8.97;49.99;101232.13;5067963;28;20099;-67
2022/01/06 10:32:01;;;;;;;1999.90;999.90;;;;;;;8.52;51.75;101235.50;5062808;28;20459;-67
2022/01/06 10:34:30;;;;;;;1999.90;999.90;;;;;;;8.98;52.13;101228.63;5061896;28;20393;-68
2022/01/06 10:36:58;;;;;;;1999.90;999.90;;;;;;;9.49;50.93;101231.84;5057740;28;20045;-68
2022/01/06 10:39:25;;;;;;;1999.90;999.90;;;;;;;10.18;47.87;101237.78;5067562;28;20098;-67
2022/01/06 10:41:52;;;;;;;1999.90;999.90;;;;;;;10.22;48.86;101241.97;5068939;28;20040;-67
2022/01/06 10:44:18;;;;;;;1999.90;999.90;;;;;;;10.63;46.51;101243.69;5063724;28;20094;-67
2022/01/06 10:46:46;;;;;;;1999.90;999.90;;;;;;;10.50;47.18;101239.00;5065328;28;20470;-68
2022/01/06 10:49:14;;;;;;;1999.90;999.90;;;;;;;10.85;47.09;101243.56;5071578;28;20044;-68
2022/01/06 10:51:43;;;;;;;1999.90;999.90;;;;;;;10.36;47.89;101247.47;5059603;28;20048;-68
2022/01/06 10:54:16;;;;;;;1999.90;999.90;;;;;;;10.58;46.88;101248.25;5061693;28;20497;-68
2022/01/06 10:56:44;;;;;;;1999.90;999.90;;;;;;;10.72;47.37;101238.00;5068458;28;20516;-68